Colerain, OH (43916)

8:09 PM EDT on September 01, 2014 (GMT -0400)
Crawford Heights | Change Station
CLOSE
Current Station
Personal Weather Station
Location: Martins Ferry, OH
Elevation: 1109 ft
Nearby Weather Stations

Elev 1109 ft 40.09 °N, 80.75 °W | Updated 4 minutes ago

Partly Cloudy
Partly Cloudy
74.8 °F
Feels Like 74 °F
N
2.7
Wind Variable Wind from WSW

Today
High -- | Low -- °F
--% Chance of Precip.
Yesterday
High -- | Low -- °F
Precip. -- in
6:50 AM 7:54 PM
Waxing Crescent, 45% visible
Pressure 29.94 in
Visibility 10.0 miles
Clouds Few 3100 ft
Scattered Clouds 4800 ft
Mostly Cloudy 12000 ft
Heat Index 74 °F
Dew Point 71 °F
Humidity 87%
Rainfall 0.05 in
Snow Depth Not available.
UV 0 out of 12
Pollen 9.20 out of 12
Air Quality Not available.
Flu Activity Not available.
METAR KHLG 012353Z 21007KT 10SM -RA FEW031 SCT048 BKN120 24/21 A2995 RMK AO2 RAB20 SLP137 P0001 60006 T02390211 10278 20233 55003

More Conditions Fewer Conditions

Pressure 29.94 in
Visibility 10.0 miles
Clouds Few 3100 ft
Scattered Clouds 4800 ft
Mostly Cloudy 12000 ft
Heat Index 74 °F
Dew Point 71 °F
Humidity 87%
Rainfall 0.05 in
Snow Depth Not available.
UV 0 out of 12
Pollen 9.20 out of 12
Air Quality Not available.
Flu Activity Not available.
METAR KHLG 012353Z 21007KT 10SM -RA FEW031 SCT048 BKN120 24/21 A2995 RMK AO2 RAB20 SLP137 P0001 60006 T02390211 10278 20233 55003

More Conditions Fewer Conditions

10-Day Weather Forecast

Almanac

Astronomy

Sep. 01, 2014 Rise Set
Actual Time 6:50 AM EDT 7:54 PM EDT
Civil Twilight 6:22 AM EDT 8:22 PM EDT
Nautical Twilight 5:49 AM EDT 8:55 PM EDT
Astronomical Twilight 5:15 AM EDT 9:29 PM EDT
Moon 1:35 PM EDT (9/1) 11:54 PM EDT (9/1)
Length of Visible Light 13h 59m
Length of Day
13h 03m
Tomorrow will be 2m 32s shorter.
Waxing Crescent, 45% of the Moon is Illuminated
Today
Waxing Crescent
Sep 2
First Quarter
Sep 8
Full
Sep 15
Last Quarter
Sep 24
New

Today's Extremes

State Highs State Lows

Community

WunderPhotos

Upload Photos

1,749,444 photos uploaded!

Nearby

Snow Depth

Station Depth Elevation
No new snow has been reported.

Earthquake Activity

City Distance Mag. Time & Date
No recent earthquake activity has been reported nearby.
Minimum magnitude displayed is 2.5.

Coastal Water Temperatures

Place Temperature
No Stations Reporting

Nearby Weather Stations